USTRANSCOM 7524


FHAW
RAF Ascension Island
Ascension Island, SH
TBPB
Grantley Adams International Airport
Bridgetown, BB

Activity Log

Date Flight Route Aircraft Duration
06/03/2019 CMB824 FHAW UL695 DIGOR UL375 EGIMI UL695 ASALI BGI B752 6h 24m

Route Details

Aircraft Information
Primary: Boeing 757-200SF
Backup: Not Available
Route Data
Distance: 2971nm
Sched. Duration: 7h 29m
Avg. Duration: 6h 24m (-106m)
Times Flown: 1
Recm'd Route: EGUPA 0030W 0440N 0850N DOLRO UM791 BGI
Planned Altitude: 30,000ft
Origin Wx: FHAW 231450Z 16016KT 9999 FEW022 30/22 Q1012 TEMPO SCT020 RMK BLU TEMPO WHT
Dest. Wx: TBPB 231500Z 11015KT 8000 VCSH BKN016 30/24 Q1015 NOSIG
Notes: USTRANSCOM CONTRACT FLIGHT | PAYLOAD RESTRICTED | ETOPS

Financial History
Total Freight: 48,996lbs
Average Load: 48,996lbs/flt
Fuel Used: 55,982lbs
Avg. Fuel Used: 55,982lbs/flt
Fuel Expense: $50,384
Avg. Fuel Expense: $50,384
Avg. Fuel Cost: $0.90/lbs
Total Gross Income: $131,799
Pilot Pay: $229
Total Expenses: $14,286
Total Revenue: $65,600
Average Revenue: $131,799.23